WETTERDATEN

GESTERN
Time Temp. Taup. r.Fe. Windrich Windstärke Windböe Druck 1h Prec. 24h Prec.
00:05 13.2 12.4 95 52 0.8 1.4 1025.5 0.0000 0.0000
00:15 13.1 12.3 95 64 0.8 1.1 1025.7 0.0000 0.0000
00:36 12.9 12.1 95 57 0.8 1.4 1025.6 0.0000 0.0000
00:46 12.9 12.1 95 45 0.8 1.1 1025.5 0.0000 0.0000
00:55 12.8 12 95 52 0.8 1.1 1025.5 0.0000 0.0000
01:06 12.6 11.7 94 45 0.8 1.4 1025.6 0.0000 0.0000
01:16 12.4 11.6 95 55 0.8 1.4 1025.6 0.0000 0.0000
01:26 12.3 11.5 95 47 0.8 1.4 1025.7 0.0000 0.0000
01:36 12.3 11.5 95 47 0.8 1.4 1025.8 0.0000 0.0000
01:46 12.3 11.5 95 49 0.8 1.7 1025.9 0.0000 0.0000
01:56 12.3 11.5 95 56 0.8 1.4 1026 0.0000 0.0000
02:06 12.1 11.3 95 59 0.8 1.1 1026 0.0000 0.0000
02:17 11.9 11.1 95 63 0.8 1.4 1026 0.0000 0.0000
02:26 11.7 10.9 95 51 0.3 1.1 1026 0.0000 0.0000
02:36 11.6 10.8 95 58 0.8 1.1 1025.9 0.0000 0.0000
02:46 11.6 10.8 95 57 0.8 1.4 1025.9 0.0000 0.0000
02:57 11.7 10.9 95 76 0.8 1.4 1026 0.0000 0.0000
03:07 11.7 10.9 95 54 0.8 1.4 1026 0.0000 0.0000
03:16 11.8 11.2 96 50 0.8 1.4 1026.1 0.0000 0.0000
03:27 11.8 11.2 96 70 0.8 1.4 1026 0.0000 0.0000
03:37 11.8 11.2 96 75 0.8 1.1 1025.9 0.0000 0.0000
03:47 11.8 11.2 96 62 0.8 1.4 1025.9 0.0000 0.0000
03:57 11.6 10.8 95 67 0.8 1.7 1026 0.0000 0.0000
04:07 11.4 10.6 95 45 0.8 1.4 1026 0.0000 0.0000
04:17 11.3 10.5 95 50 0.8 1.4 1026 0.0000 0.0000
04:27 11.3 10.5 95 60 0.8 1.1 1026.1 0.0000 0.0000
04:38 11.1 10.3 95 64 1.1 1.7 1026.2 0.0000 0.0000
04:47 11 10.2 95 60 0.8 1.4 1026.2 0.0000 0.0000
04:57 10.8 10 95 51 0.8 1.7 1026.2 0.0000 0.0000
05:07 10.6 9.8 95 68 1.1 1.4 1026.3 0.0000 0.0000
05:17 10.5 9.7 95 60 0.8 1.4 1026.4 0.0000 0.0000
05:28 10.4 9.6 95 66 0.8 1.1 1026.6 0.0000 0.0000
05:37 10.2 9.4 95 56 0.8 1.7 1026.7 0.1010 0.1000
05:48 10 9.2 95 49 0.8 1.4 1026.8 0.1010 0.1000
05:58 10 9.2 95 49 0.8 1.4 1026.9 0.1010 0.1000
06:08 10.2 9.6 96 65 0.8 1.4 1027 0.1010 0.1000
06:17 10.4 9.8 96 66 0.8 1.4 1027.2 0.1010 0.1000
06:28 10.6 10 96 68 0.8 1.4 1027.3 0.0000 0.1000
06:38 10.8 10.2 96 57 0.8 1.4 1027.4 0.0000 0.1000
06:48 10.8 10.2 96 53 0.8 1.4 1027.5 0.0000 0.1000
06:59 10.7 9.9 95 64 0.8 1.1 1027.6 0.0000 0.1000
07:08 10.7 9.9 95 76 0.8 1.4 1027.7 0.0000 0.1000
07:18 10.8 10.2 96 69 0.8 1.7 1027.8 0.0000 0.1000
07:28 11.1 10.5 96 62 1.1 1.7 1027.9 0.0000 0.1000
07:39 11.4 10.8 96 55 0.8 1.7 1027.9 0.0000 0.1000
07:48 11.7 11.1 96 62 0.8 1.7 1028 0.0000 0.1000
07:58 11.8 11 95 49 0.8 1.4 1028 0.0000 0.1000
08:09 12 11.2 95 73 0.8 1.7 1028 0.0000 0.1000
08:19 12.3 11.5 95 58 0.8 1.4 1028.1 0.0000 0.1000
08:29 12.6 11.7 94 78 1.1 1.7 1028 0.0000 0.1000
08:38 12.9 11.8 93 73 1.1 1.7 1028 0.0000 0.1000
08:49 13.3 12 92 64 1.1 2.2 1028 0.0000 0.1000
08:59 13.8 12.2 90 80 0.8 2.2 1027.9 0.0000 0.1000
09:09 14.7 12.6 87 90 1.1 2.2 1028 0.0000 0.1000
09:19 16.7 13 79 75 1.1 1.7 1028 0.0000 0.1000
09:29 18.4 13.7 74 76 0.8 1.4 1027.9 0.0000 0.1000
09:39 20.1 13.1 64 167 1.1 2.5 1027.9 0.0000 0.1000
09:49 21.3 13.5 61 80 0.8 1.7 1027.8 0.0000 0.1000
10:00 22.4 12.4 53 63 0.8 2.2 1027.8 0.0000 0.1000
10:09 21.7 11.7 53 45 0.8 1.4 1027.8 0.0000 0.1000
10:19 20.9 10.7 52 144 0.8 1.4 1027.8 0.0000 0.1000
10:30 20.2 10.3 53 45 0.8 1.4 1027.8 0.0000 0.1000
10:40 19.9 10.3 54 90 0.8 1.4 1027.7 0.0000 0.1000
10:50 20.1 10.8 55 100 0.8 2.8 1027.7 0.0000 0.1000
10:59 20.8 10.9 53 135 0.8 1.4 1027.6 0.0000 0.1000
11:10 22 11.1 50 135 0.8 1.4 1027.7 0.0000 0.1000
11:20 23.5 12.8 51 90 0.8 2.2 1027.6 0.0000 0.1000
11:30 24.4 12 46 42 1.1 3.3 1027.5 0.0000 0.1000
11:40 23 11.1 47 40 1.1 2.2 1027.6 0.0000 0.1000
11:50 21.8 10.9 50 37 0.8 1.7 1027.7 0.0000 0.1000
12:00 21.3 11.1 52 64 0.8 1.7 1027.8 0.0000 0.1000
12:10 22.9 12.5 52 57 0.8 1.7 1027.7 0.0000 0.1000
12:21 22.8 10.9 47 90 1.1 2.5 1027.7 0.0000 0.1000
12:30 22.3 10.8 48 54 1.1 2.2 1027.7 0.0000 0.1000
12:40 22.3 10.5 47 100 1.1 2.2 1027.7 0.0000 0.1000
12:51 22.2 10 46 100 0.8 2.2 1027.5 0.0000 0.1000
13:01 22.9 10.7 46 55 1.1 2.5 1027.5 0.0000 0.1000
13:11 22.5 10.3 46 47 0.8 1.7 1027.6 0.0000 0.1000
13:20 22 9.5 45 22 0.8 1.7 1027.6 0.0000 0.1000
13:31 21.7 9.6 46 60 0.8 1.4 1027.6 0.0000 0.1000
13:41 21.8 9.7 46 167 0.8 1.7 1027.5 0.0000 0.1000
13:51 22.9 9.7 43 140 1.1 2.2 1027.4 0.0000 0.1000
14:01 22.3 9.5 44 20 0.8 1.4 1027.4 0.0000 0.1000
14:11 22.9 10 44 15 0.8 2.2 1027.4 0.0000 0.1000
14:16 23.7 11.1 45 138 1.1 2.5 1027.3 0.0000 0.1000
14:31 24.1 10.4 42 347 1.1 2.8 1027.4 0.0000 0.1000
14:42 23.6 10.3 43 21 0.8 1.4 1027.3 0.0000 0.1000
14:51 23.7 9.7 41 175 0.8 1.7 1027.2 0.0000 0.1000
15:01 23.4 9 40 54 0.8 2.2 1027 0.0000 0.1000
15:12 23.6 10 42 61 0.8 1.7 1027 0.0000 0.1000
15:22 24.4 10.7 42 90 0.8 2.2 1026.9 0.0000 0.1000
15:32 24.2 10.5 42 48 0.8 1.7 1026.9 0.0000 0.1000
15:41 23.9 8.7 38 354 0.8 1.7 1027 0.0000 0.1000
15:52 23.3 9.3 41 26 0.3 1.1 1027 0.0000 0.1000
16:02 22.6 9.7 44 21 0.3 1.1 1027 0.0000 0.1000
16:12 22 10.5 48 13 0.8 1.1 1026.9 0.0000 0.1000
16:22 22.9 10 44 146 0.8 1.7 1026.8 0.0000 0.1000
16:32 24.1 10 41 138 0.8 1.7 1026.8 0.0000 0.1000
16:42 25 11.2 42 199 1.1 2.8 1026.8 0.0000 0.1000
16:52 25.5 10.9 40 0 0.8 2.2 1026.9 0.0000 0.1000
17:03 24.9 10 39 220 0.8 2.2 1026.9 0.0000 0.1000
17:12 23.9 9.9 41 194 0.8 2.5 1026.9 0.0000 0.1000
17:22 23 9.8 43 0.8 1.1 1026.9 0.0000 0.1000
17:33 22.4 9.9 45 182 0.8 1.4 1026.9 0.0000 0.1000
17:43 22.4 9.6 44 169 1.1 2.5 1026.9 0.0000 0.1000
17:53 23.6 10.6 44 0.8 1.7 1026.9 0.0000 0.1000
18:02 24.5 10.8 42 172 0.8 1.7 1026.8 0.0000 0.1000
18:13 24.1 10 41 187 1.1 2.5 1026.8 0.0000 0.1000
18:23 23.3 9.3 41 15 0.3 1.4 1026.8 0.0000 0.1000
18:33 23.3 9.7 42 22 0.8 1.4 1026.8 0.0000 0.1000
18:43 23.5 9.9 42 10 0.8 1.4 1026.8 0.0000 0.1000
18:53 23.6 10.3 43 14 0.8 1.4 1026.8 0.0000 0.1000
19:03 23 10.4 45 9 0.8 1.7 1026.8 0.0000 0.1000
19:13 21.7 10.2 48 8 0.8 1.7 1026.8 0.0000 0.1000
19:24 20.3 9.8 51 10 0.8 1.4 1026.8 0.0000 0.1000
19:33 19.1 9.6 54 37 0.3 1.1 1027 0.0000 0.1000
19:43 18.3 9.4 56 45 0.8 1.4 1026.9 0.0000 0.1000
19:54 17.6 9.2 58 51 0.3 1.1 1027 0.0000 0.1000
20:04 17 8.9 59 34 0.8 1.4 1027.2 0.0000 0.1000
20:14 16.5 9 61 39 0.8 1.4 1027.3 0.0000 0.1000
20:23 16 9 63 42 0.8 1.1 1027.3 0.0000 0.1000
20:34 15.5 8.7 64 45 0.8 1.4 1027.3 0.0000 0.1000
20:44 15 8.5 65 45 0.3 1.1 1027.4 0.0000 0.1000
20:54 14.7 8.4 66 45 0.8 1.4 1027.4 0.0000 0.1000
21:04 14.4 8.4 67 52 0.8 1.4 1027.6 0.0000 0.1000
21:14 14 8.2 68 56 0.8 1.4 1027.7 0.0000 0.1000
21:24 13.6 8 69 47 0.8 1.1 1027.9 0.0000 0.1000
21:34 13.2 8.1 71 49 0.8 1.4 1028 0.0000 0.1000
21:45 12.9 8 72 45 0.8 1.1 1028.1 0.0000 0.1000
21:54 12.6 8.1 74 45 0.8 1.1 1028.1 0.0000 0.1000
22:04 12.3 7.8 74 45 0.8 1.4 1028.2 0.0000 0.1000
22:16 12 7.9 76 39 0.8 1.1 1028.3 0.0000 0.1000
22:26 11.8 7.7 76 47 0.8 1.4 1028.3 0.0000 0.1000
22:36 11.5 7.6 77 47 0.8 1.1 1028.3 0.0000 0.1000
22:46 11.3 7.6 78 49 0.8 1.4 1028.4 0.0000 0.1000
22:57 11 7.5 79 49 0.8 1.4 1028.4 0.0000 0.1000
23:06 10.8 7.5 80 49 0.8 1.1 1028.4 0.0000 0.1000
23:16 10.6 7.5 81 51 0.8 1.4 1028.5 0.0000 0.1000
23:27 10.5 7.4 81 45 0.8 1.4 1028.6 0.0000 0.1000
23:37 10.3 7.4 82 54 0.8 1.1 1028.6 0.0000 0.1000
23:47 10.1 7.2 82 49 0.8 1.4 1028.6 0.0000 0.1000
23:56 9.9 7 82 52 0.8 1.4 1028.6 0.0000

TAGESSTATISTIK

2020-07-12
TEMPERATUR
MITTEL
16.7
MAXIMUM
25.5
16:52
MINIMUM
9.9
23:56
LUFTDRUCK
MITTEL
1027.2
MAXIMUM
1028.6
23:27
MINIMUM
1025.5
00:05
TAUPUNKT
MITTEL
10.2
MAXIMUM
13.7
09:29
MINIMUM
7.0
23:56
FEUCHTIGKEIT
MITTEL
70
MAXIMUM
96
03:16
MINIMUM
38
15:41
WINDSTÄRKE
MITTEL
0.8
MAXIMUM
1.1
04:38
WINDBÖE
MITTEL
1.6
MAXIMUM
3.3
11:30
WINDRICHTUNG
VORHERRSCHENDE
NO
59.9%
N
11.3
NO
59.9
O
15.5
SO
4.9
S
6.3
SW
0.7
W
0.0
NW
0.0
NIEDERSCHLAG
REGEN STUNDE
0.1
REGEN TAG
0.1
TEMPERATUR (°C)
MINIMUM
9.9
MAXIMUM
25.5
MITTEL
16.7
LUFTDRUCK (hpa)
MINIMUM
1025.5
MAXIMUM
1028.6
MITTEL
1027.2
MESSGERÄT